sensor_id;sensor_type;location;lat;lon;timestamp;P1;durP1;ratioP1;P2;durP2;ratioP2
10351;SDS011;5222;49.324;8.420;2022-09-21T00:00:16;1063.97;;;994.72;;
10351;SDS011;5222;49.324;8.420;2022-09-21T00:02:42;1100.50;;;999.90;;
10351;SDS011;5222;49.324;8.420;2022-09-21T00:05:09;1077.57;;;999.90;;
10351;SDS011;5222;49.324;8.420;2022-09-21T00:07:36;1080.63;;;999.90;;
10351;SDS011;5222;49.324;8.420;2022-09-21T00:10:03;1073.78;;;999.90;;
10351;SDS011;5222;49.324;8.420;2022-09-21T00:12:30;1096.78;;;999.90;;
10351;SDS011;5222;49.324;8.420;2022-09-21T00:14:57;1071.90;;;999.90;;
10351;SDS011;5222;49.324;8.420;2022-09-21T00:17:26;1083.70;;;999.90;;
10351;SDS011;5222;49.324;8.420;2022-09-21T00:19:52;1089.10;;;999.90;;
10351;SDS011;5222;49.324;8.420;2022-09-21T00:22:19;1060.43;;;991.33;;
10351;SDS011;5222;49.324;8.420;2022-09-21T00:24:46;1079.27;;;999.90;;
10351;SDS011;5222;49.324;8.420;2022-09-21T00:27:12;1080.97;;;999.90;;
10351;SDS011;5222;49.324;8.420;2022-09-21T00:29:39;1089.32;;;999.90;;
10351;SDS011;5222;49.324;8.420;2022-09-21T00:32:06;1064.65;;;996.08;;
10351;SDS011;5222;49.324;8.420;2022-09-21T00:34:34;1083.95;;;999.90;;
10351;SDS011;5222;49.324;8.420;2022-09-21T00:37:01;1085.53;;;999.90;;
10351;SDS011;5222;49.324;8.420;2022-09-21T00:39:27;1085.15;;;999.90;;
10351;SDS011;5222;49.324;8.420;2022-09-21T00:41:54;1064.88;;;995.40;;
10351;SDS011;5222;49.324;8.420;2022-09-21T00:44:28;1072.30;;;999.90;;
10351;SDS011;5222;49.324;8.420;2022-09-21T00:46:57;1071.35;;;999.90;;
10351;SDS011;5222;49.324;8.420;2022-09-21T00:49:28;1088.07;;;999.90;;
10351;SDS011;5222;49.324;8.420;2022-09-21T00:52:00;1086.97;;;999.90;;
10351;SDS011;5222;49.324;8.420;2022-09-21T00:54:29;1095.30;;;999.90;;
10351;SDS011;5222;49.324;8.420;2022-09-21T00:57:00;1076.57;;;999.90;;
10351;SDS011;5222;49.324;8.420;2022-09-21T00:59:28;1077.55;;;999.90;;
10351;SDS011;5222;49.324;8.420;2022-09-21T01:01:57;1084.03;;;999.90;;
10351;SDS011;5222;49.324;8.420;2022-09-21T01:04:25;1083.63;;;999.90;;
10351;SDS011;5222;49.324;8.420;2022-09-21T01:06:53;1070.93;;;999.78;;
10351;SDS011;5222;49.324;8.420;2022-09-21T01:09:22;1092.72;;;999.90;;
10351;SDS011;5222;49.324;8.420;2022-09-21T01:11:52;1100.55;;;999.90;;
10351;SDS011;5222;49.324;8.420;2022-09-21T01:14:36;1073.68;;;999.90;;
10351;SDS011;5222;49.324;8.420;2022-09-21T01:17:17;1081.13;;;999.90;;
10351;SDS011;5222;49.324;8.420;2022-09-21T01:19:58;1078.88;;;999.90;;
10351;SDS011;5222;49.324;8.420;2022-09-21T01:22:44;1081.35;;;999.90;;
10351;SDS011;5222;49.324;8.420;2022-09-21T01:25:25;1080.13;;;999.90;;
10351;SDS011;5222;49.324;8.420;2022-09-21T01:28:07;1055.38;;;987.35;;
10351;SDS011;5222;49.324;8.420;2022-09-21T01:30:47;1076.88;;;999.90;;
10351;SDS011;5222;49.324;8.420;2022-09-21T01:33:19;1084.57;;;999.90;;
10351;SDS011;5222;49.324;8.420;2022-09-21T01:35:49;1094.38;;;999.90;;
10351;SDS011;5222;49.324;8.420;2022-09-21T01:38:20;1072.00;;;999.90;;
10351;SDS011;5222;49.324;8.420;2022-09-21T01:40:51;1079.37;;;999.90;;
10351;SDS011;5222;49.324;8.420;2022-09-21T01:43:23;1084.43;;;999.90;;
10351;SDS011;5222;49.324;8.420;2022-09-21T01:45:57;1081.72;;;999.90;;
10351;SDS011;5222;49.324;8.420;2022-09-21T01:48:27;1059.07;;;990.10;;
10351;SDS011;5222;49.324;8.420;2022-09-21T01:50:57;1053.55;;;985.15;;
10351;SDS011;5222;49.324;8.420;2022-09-21T01:53:27;1059.63;;;990.72;;
10351;SDS011;5222;49.324;8.420;2022-09-21T01:55:58;1053.32;;;984.00;;
10351;SDS011;5222;49.324;8.420;2022-09-21T01:58:30;1042.97;;;974.55;;
10351;SDS011;5222;49.324;8.420;2022-09-21T02:01:02;1048.78;;;980.60;;
10351;SDS011;5222;49.324;8.420;2022-09-21T02:03:33;1064.68;;;995.40;;
10351;SDS011;5222;49.324;8.420;2022-09-21T02:06:03;1057.20;;;988.70;;
10351;SDS011;5222;49.324;8.420;2022-09-21T02:08:31;1076.50;;;999.90;;
10351;SDS011;5222;49.324;8.420;2022-09-21T02:10:59;1053.77;;;985.03;;
10351;SDS011;5222;49.324;8.420;2022-09-21T02:13:29;1051.93;;;983.78;;
10351;SDS011;5222;49.324;8.420;2022-09-21T02:16:03;1065.85;;;995.90;;
10351;SDS011;5222;49.324;8.420;2022-09-21T02:18:47;1076.03;;;999.90;;
10351;SDS011;5222;49.324;8.420;2022-09-21T02:21:24;1071.93;;;999.90;;
10351;SDS011;5222;49.324;8.420;2022-09-21T02:23:56;1068.03;;;998.17;;
10351;SDS011;5222;49.324;8.420;2022-09-21T02:26:35;1070.68;;;999.75;;
10351;SDS011;5222;49.324;8.420;2022-09-21T02:29:11;1075.43;;;999.90;;
10351;SDS011;5222;49.324;8.420;2022-09-21T02:31:46;1082.97;;;999.90;;
10351;SDS011;5222;49.324;8.420;2022-09-21T02:34:18;1059.50;;;990.95;;
10351;SDS011;5222;49.324;8.420;2022-09-21T02:36:52;1072.45;;;999.90;;
10351;SDS011;5222;49.324;8.420;2022-09-21T02:39:27;1060.70;;;990.85;;
10351;SDS011;5222;49.324;8.420;2022-09-21T02:42:00;1060.45;;;991.10;;
10351;SDS011;5222;49.324;8.420;2022-09-21T02:44:31;1066.13;;;996.92;;
10351;SDS011;5222;49.324;8.420;2022-09-21T02:47:07;1057.30;;;988.40;;
10351;SDS011;5222;49.324;8.420;2022-09-21T02:49:39;1071.68;;;999.80;;
10351;SDS011;5222;49.324;8.420;2022-09-21T02:52:11;1068.55;;;999.20;;
10351;SDS011;5222;49.324;8.420;2022-09-21T02:54:41;1077.90;;;999.90;;
10351;SDS011;5222;49.324;8.420;2022-09-21T02:57:11;1061.72;;;993.03;;
10351;SDS011;5222;49.324;8.420;2022-09-21T02:59:39;1065.18;;;995.35;;
10351;SDS011;5222;49.324;8.420;2022-09-21T03:02:07;1077.15;;;999.90;;
10351;SDS011;5222;49.324;8.420;2022-09-21T03:04:36;1053.00;;;983.10;;
10351;SDS011;5222;49.324;8.420;2022-09-21T03:07:04;1091.22;;;999.90;;
10351;SDS011;5222;49.324;8.420;2022-09-21T03:09:31;1070.97;;;999.57;;
10351;SDS011;5222;49.324;8.420;2022-09-21T03:11:58;1061.10;;;991.30;;
10351;SDS011;5222;49.324;8.420;2022-09-21T03:14:24;1067.13;;;997.72;;
10351;SDS011;5222;49.324;8.420;2022-09-21T03:16:51;1060.63;;;991.20;;
10351;SDS011;5222;49.324;8.420;2022-09-21T03:19:20;1061.60;;;992.27;;
10351;SDS011;5222;49.324;8.420;2022-09-21T03:21:46;1073.43;;;999.90;;
10351;SDS011;5222;49.324;8.420;2022-09-21T03:24:13;1057.32;;;987.95;;
10351;SDS011;5222;49.324;8.420;2022-09-21T03:27:00;1087.22;;;999.90;;
10351;SDS011;5222;49.324;8.420;2022-09-21T03:29:27;1066.75;;;997.50;;
10351;SDS011;5222;49.324;8.420;2022-09-21T03:31:54;1057.82;;;988.53;;
10351;SDS011;5222;49.324;8.420;2022-09-21T03:34:22;1058.97;;;989.78;;
10351;SDS011;5222;49.324;8.420;2022-09-21T03:36:48;1078.57;;;999.90;;
10351;SDS011;5222;49.324;8.420;2022-09-21T03:39:15;1067.97;;;998.08;;
10351;SDS011;5222;49.324;8.420;2022-09-21T03:41:42;1057.80;;;988.45;;
10351;SDS011;5222;49.324;8.420;2022-09-21T03:44:09;1048.97;;;980.75;;
10351;SDS011;5222;49.324;8.420;2022-09-21T03:46:36;1049.85;;;981.58;;
10351;SDS011;5222;49.324;8.420;2022-09-21T03:49:02;1068.40;;;998.53;;
10351;SDS011;5222;49.324;8.420;2022-09-21T03:51:30;1058.75;;;989.47;;
10351;SDS011;5222;49.324;8.420;2022-09-21T03:53:57;1047.20;;;979.40;;
10351;SDS011;5222;49.324;8.420;2022-09-21T03:56:24;1069.03;;;999.20;;
10351;SDS011;5222;49.324;8.420;2022-09-21T03:58:50;1069.22;;;998.85;;
10351;SDS011;5222;49.324;8.420;2022-09-21T04:01:17;1077.93;;;999.90;;
10351;SDS011;5222;49.324;8.420;2022-09-21T04:03:43;1071.68;;;999.90;;
10351;SDS011;5222;49.324;8.420;2022-09-21T04:06:11;1061.10;;;992.50;;
10351;SDS011;5222;49.324;8.420;2022-09-21T04:08:39;1058.72;;;989.53;;
10351;SDS011;5222;49.324;8.420;2022-09-21T04:11:08;1051.35;;;982.47;;
10351;SDS011;5222;49.324;8.420;2022-09-21T04:13:35;1064.03;;;994.80;;
10351;SDS011;5222;49.324;8.420;2022-09-21T04:16:02;1045.07;;;976.17;;
10351;SDS011;5222;49.324;8.420;2022-09-21T04:18:29;1059.45;;;989.60;;
10351;SDS011;5222;49.324;8.420;2022-09-21T04:20:56;1064.55;;;995.35;;
10351;SDS011;5222;49.324;8.420;2022-09-21T04:23:23;1028.22;;;960.70;;
10351;SDS011;5222;49.324;8.420;2022-09-21T04:25:52;1066.53;;;994.97;;
10351;SDS011;5222;49.324;8.420;2022-09-21T04:28:20;1038.70;;;970.13;;
10351;SDS011;5222;49.324;8.420;2022-09-21T04:30:50;1049.85;;;980.03;;
10351;SDS011;5222;49.324;8.420;2022-09-21T04:33:17;1035.82;;;967.60;;
10351;SDS011;5222;49.324;8.420;2022-09-21T04:35:44;1026.18;;;956.40;;
10351;SDS011;5222;49.324;8.420;2022-09-21T04:38:12;1023.33;;;954.92;;
10351;SDS011;5222;49.324;8.420;2022-09-21T04:40:38;1044.47;;;975.67;;
10351;SDS011;5222;49.324;8.420;2022-09-21T04:43:06;1033.43;;;964.77;;
10351;SDS011;5222;49.324;8.420;2022-09-21T04:45:33;1027.88;;;958.75;;
10351;SDS011;5222;49.324;8.420;2022-09-21T04:48:00;1013.17;;;946.20;;
10351;SDS011;5222;49.324;8.420;2022-09-21T04:50:27;1024.45;;;957.05;;
10351;SDS011;5222;49.324;8.420;2022-09-21T04:52:54;1059.00;;;989.55;;
10351;SDS011;5222;49.324;8.420;2022-09-21T04:55:22;1026.30;;;958.47;;
10351;SDS011;5222;49.324;8.420;2022-09-21T04:57:49;1034.00;;;965.45;;
10351;SDS011;5222;49.324;8.420;2022-09-21T05:00:17;1026.30;;;958.78;;
10351;SDS011;5222;49.324;8.420;2022-09-21T05:02:44;1037.45;;;969.63;;
10351;SDS011;5222;49.324;8.420;2022-09-21T05:05:10;1048.00;;;979.33;;
10351;SDS011;5222;49.324;8.420;2022-09-21T05:07:37;1023.03;;;954.87;;
10351;SDS011;5222;49.324;8.420;2022-09-21T05:10:04;1030.72;;;962.38;;
10351;SDS011;5222;49.324;8.420;2022-09-21T05:12:30;1039.93;;;971.40;;
10351;SDS011;5222;49.324;8.420;2022-09-21T05:14:58;1056.75;;;987.60;;
10351;SDS011;5222;49.324;8.420;2022-09-21T05:17:26;1029.32;;;960.47;;
10351;SDS011;5222;49.324;8.420;2022-09-21T05:19:53;1035.00;;;967.20;;
10351;SDS011;5222;49.324;8.420;2022-09-21T05:22:20;1030.88;;;962.63;;
10351;SDS011;5222;49.324;8.420;2022-09-21T05:24:47;1046.47;;;976.90;;
10351;SDS011;5222;49.324;8.420;2022-09-21T05:27:14;1067.37;;;997.10;;
10351;SDS011;5222;49.324;8.420;2022-09-21T05:29:41;1037.27;;;968.90;;
10351;SDS011;5222;49.324;8.420;2022-09-21T05:32:10;1054.32;;;984.60;;
10351;SDS011;5222;49.324;8.420;2022-09-21T05:34:47;1033.03;;;964.17;;
10351;SDS011;5222;49.324;8.420;2022-09-21T05:37:27;1047.65;;;978.50;;
10351;SDS011;5222;49.324;8.420;2022-09-21T05:40:19;1058.75;;;988.30;;
10351;SDS011;5222;49.324;8.420;2022-09-21T05:42:46;1064.65;;;993.90;;
10351;SDS011;5222;49.324;8.420;2022-09-21T05:45:14;1051.57;;;980.97;;
10351;SDS011;5222;49.324;8.420;2022-09-21T05:47:48;1040.03;;;971.15;;
10351;SDS011;5222;49.324;8.420;2022-09-21T05:56:34;1047.45;;;978.25;;
10351;SDS011;5222;49.324;8.420;2022-09-21T05:59:15;1045.10;;;975.78;;
10351;SDS011;5222;49.324;8.420;2022-09-21T06:01:58;1079.05;;;999.90;;
10351;SDS011;5222;49.324;8.420;2022-09-21T06:04:31;1065.32;;;995.58;;
10351;SDS011;5222;49.324;8.420;2022-09-21T06:06:58;1038.57;;;969.53;;
10351;SDS011;5222;49.324;8.420;2022-09-21T06:09:26;1047.72;;;978.50;;
10351;SDS011;5222;49.324;8.420;2022-09-21T06:11:53;1062.90;;;991.90;;
10351;SDS011;5222;49.324;8.420;2022-09-21T06:14:20;1029.63;;;961.58;;
10351;SDS011;5222;49.324;8.420;2022-09-21T06:16:49;1043.85;;;974.58;;
10351;SDS011;5222;49.324;8.420;2022-09-21T06:19:16;1055.18;;;985.30;;
10351;SDS011;5222;49.324;8.420;2022-09-21T06:21:44;1053.28;;;983.33;;
10351;SDS011;5222;49.324;8.420;2022-09-21T06:24:11;1033.38;;;964.70;;
10351;SDS011;5222;49.324;8.420;2022-09-21T06:26:41;1031.03;;;962.15;;
10351;SDS011;5222;49.324;8.420;2022-09-21T06:29:07;1048.53;;;978.30;;
10351;SDS011;5222;49.324;8.420;2022-09-21T06:31:34;1024.50;;;955.53;;
10351;SDS011;5222;49.324;8.420;2022-09-21T06:34:01;1050.43;;;980.67;;
10351;SDS011;5222;49.324;8.420;2022-09-21T06:36:28;1055.35;;;985.72;;
10351;SDS011;5222;49.324;8.420;2022-09-21T06:38:55;1062.43;;;990.08;;
10351;SDS011;5222;49.324;8.420;2022-09-21T06:41:22;1026.10;;;957.22;;
10351;SDS011;5222;49.324;8.420;2022-09-21T06:43:53;1044.22;;;974.63;;
10351;SDS011;5222;49.324;8.420;2022-09-21T06:46:21;1029.60;;;960.80;;
10351;SDS011;5222;49.324;8.420;2022-09-21T06:48:49;1055.20;;;985.47;;
10351;SDS011;5222;49.324;8.420;2022-09-21T06:51:16;1046.18;;;977.30;;
10351;SDS011;5222;49.324;8.420;2022-09-21T06:53:46;1048.85;;;978.67;;
10351;SDS011;5222;49.324;8.420;2022-09-21T06:56:13;1034.45;;;966.33;;
10351;SDS011;5222;49.324;8.420;2022-09-21T06:58:40;1046.72;;;977.47;;
10351;SDS011;5222;49.324;8.420;2022-09-21T07:01:08;1033.45;;;965.17;;
10351;SDS011;5222;49.324;8.420;2022-09-21T07:03:38;1027.75;;;959.10;;
10351;SDS011;5222;49.324;8.420;2022-09-21T07:06:06;1022.83;;;954.72;;
10351;SDS011;5222;49.324;8.420;2022-09-21T07:08:35;1020.72;;;952.85;;
10351;SDS011;5222;49.324;8.420;2022-09-21T07:11:03;1016.95;;;948.63;;
10351;SDS011;5222;49.324;8.420;2022-09-21T07:13:30;1041.57;;;972.45;;
10351;SDS011;5222;49.324;8.420;2022-09-21T07:15:56;1030.80;;;961.50;;
10351;SDS011;5222;49.324;8.420;2022-09-21T07:18:24;1006.17;;;939.27;;
10351;SDS011;5222;49.324;8.420;2022-09-21T07:20:51;1008.15;;;941.17;;
10351;SDS011;5222;49.324;8.420;2022-09-21T07:23:18;1013.97;;;947.17;;
10351;SDS011;5222;49.324;8.420;2022-09-21T07:25:48;899.17;;;836.72;;
10351;SDS011;5222;49.324;8.420;2022-09-21T07:28:16;874.47;;;812.60;;
10351;SDS011;5222;49.324;8.420;2022-09-21T07:30:44;855.60;;;795.42;;
10351;SDS011;5222;49.324;8.420;2022-09-21T07:33:10;784.40;;;726.40;;
10351;SDS011;5222;49.324;8.420;2022-09-21T07:35:38;858.20;;;797.10;;
10351;SDS011;5222;49.324;8.420;2022-09-21T07:38:06;824.38;;;765.75;;
10351;SDS011;5222;49.324;8.420;2022-09-21T07:40:33;645.67;;;592.33;;
10351;SDS011;5222;49.324;8.420;2022-09-21T07:43:01;569.33;;;517.33;;
10351;SDS011;5222;49.324;8.420;2022-09-21T07:45:29;541.33;;;490.80;;
10351;SDS011;5222;49.324;8.420;2022-09-21T07:48:00;523.22;;;473.58;;
10351;SDS011;5222;49.324;8.420;2022-09-21T07:50:28;506.57;;;458.20;;
10351;SDS011;5222;49.324;8.420;2022-09-21T07:52:56;533.20;;;483.17;;
10351;SDS011;5222;49.324;8.420;2022-09-21T07:55:24;558.83;;;506.38;;
10351;SDS011;5222;49.324;8.420;2022-09-21T07:57:51;570.53;;;518.42;;
10351;SDS011;5222;49.324;8.420;2022-09-21T08:00:35;564.65;;;512.83;;
10351;SDS011;5222;49.324;8.420;2022-09-21T08:03:02;560.47;;;508.87;;
10351;SDS011;5222;49.324;8.420;2022-09-21T08:05:29;563.60;;;510.08;;
10351;SDS011;5222;49.324;8.420;2022-09-21T08:08:00;566.20;;;510.98;;
10351;SDS011;5222;49.324;8.420;2022-09-21T08:10:27;548.15;;;496.95;;
10351;SDS011;5222;49.324;8.420;2022-09-21T08:12:56;542.30;;;491.48;;
10351;SDS011;5222;49.324;8.420;2022-09-21T08:15:23;532.90;;;481.35;;
10351;SDS011;5222;49.324;8.420;2022-09-21T08:17:50;534.42;;;483.50;;
10351;SDS011;5222;49.324;8.420;2022-09-21T08:20:21;557.92;;;505.05;;
10351;SDS011;5222;49.324;8.420;2022-09-21T08:22:47;531.42;;;479.80;;
10351;SDS011;5222;49.324;8.420;2022-09-21T08:25:15;571.00;;;518.20;;
10351;SDS011;5222;49.324;8.420;2022-09-21T08:27:42;598.13;;;545.00;;
10351;SDS011;5222;49.324;8.420;2022-09-21T08:30:09;525.03;;;475.10;;
10351;SDS011;5222;49.324;8.420;2022-09-21T08:32:37;535.90;;;484.87;;
10351;SDS011;5222;49.324;8.420;2022-09-21T08:35:05;583.75;;;530.78;;
10351;SDS011;5222;49.324;8.420;2022-09-21T08:37:33;658.80;;;602.83;;
10351;SDS011;5222;49.324;8.420;2022-09-21T08:40:02;648.40;;;592.35;;
10351;SDS011;5222;49.324;8.420;2022-09-21T08:42:44;635.88;;;579.80;;
10351;SDS011;5222;49.324;8.420;2022-09-21T08:45:18;664.38;;;607.60;;
10351;SDS011;5222;49.324;8.420;2022-09-21T08:47:47;660.85;;;604.45;;
10351;SDS011;5222;49.324;8.420;2022-09-21T08:53:06;624.10;;;569.33;;
10351;SDS011;5222;49.324;8.420;2022-09-21T08:55:37;649.17;;;591.50;;
10351;SDS011;5222;49.324;8.420;2022-09-21T08:58:07;589.03;;;536.33;;
10351;SDS011;5222;49.324;8.420;2022-09-21T09:00:46;583.05;;;529.50;;
10351;SDS011;5222;49.324;8.420;2022-09-21T09:03:28;596.13;;;542.22;;
10351;SDS011;5222;49.324;8.420;2022-09-21T09:06:08;553.03;;;500.55;;
10351;SDS011;5222;49.324;8.420;2022-09-21T09:08:48;589.88;;;535.88;;
10351;SDS011;5222;49.324;8.420;2022-09-21T09:11:25;588.17;;;534.15;;
10351;SDS011;5222;49.324;8.420;2022-09-21T09:14:13;560.60;;;508.05;;
10351;SDS011;5222;49.324;8.420;2022-09-21T09:16:52;606.20;;;552.30;;
10351;SDS011;5222;49.324;8.420;2022-09-21T09:19:38;580.10;;;526.67;;
10351;SDS011;5222;49.324;8.420;2022-09-21T09:22:10;598.47;;;544.60;;
10351;SDS011;5222;49.324;8.420;2022-09-21T09:24:41;603.53;;;548.92;;
10351;SDS011;5222;49.324;8.420;2022-09-21T09:27:13;507.52;;;457.77;;
10351;SDS011;5222;49.324;8.420;2022-09-21T09:29:47;578.33;;;525.92;;
10351;SDS011;5222;49.324;8.420;2022-09-21T09:32:19;555.08;;;502.70;;
10351;SDS011;5222;49.324;8.420;2022-09-21T09:34:56;546.53;;;493.45;;
10351;SDS011;5222;49.324;8.420;2022-09-21T09:37:31;510.13;;;459.92;;
10351;SDS011;5222;49.324;8.420;2022-09-21T09:40:01;521.90;;;471.43;;
10351;SDS011;5222;49.324;8.420;2022-09-21T09:42:31;549.35;;;497.05;;
10351;SDS011;5222;49.324;8.420;2022-09-21T09:45:13;570.17;;;516.95;;
10351;SDS011;5222;49.324;8.420;2022-09-21T09:47:49;563.65;;;511.27;;
10351;SDS011;5222;49.324;8.420;2022-09-21T09:50:28;528.05;;;476.50;;
10351;SDS011;5222;49.324;8.420;2022-09-21T09:52:59;510.93;;;460.70;;
10351;SDS011;5222;49.324;8.420;2022-09-21T09:55:34;519.53;;;468.60;;
10351;SDS011;5222;49.324;8.420;2022-09-21T09:58:03;505.27;;;455.52;;
10351;SDS011;5222;49.324;8.420;2022-09-21T10:00:31;507.58;;;457.77;;
10351;SDS011;5222;49.324;8.420;2022-09-21T10:02:58;520.03;;;469.90;;
10351;SDS011;5222;49.324;8.420;2022-09-21T10:05:30;510.77;;;460.25;;
10351;SDS011;5222;49.324;8.420;2022-09-21T10:07:58;541.25;;;490.38;;
10351;SDS011;5222;49.324;8.420;2022-09-21T10:10:29;552.92;;;501.58;;
10351;SDS011;5222;49.324;8.420;2022-09-21T10:13:05;503.90;;;454.52;;
10351;SDS011;5222;49.324;8.420;2022-09-21T10:15:42;557.40;;;504.13;;
10351;SDS011;5222;49.324;8.420;2022-09-21T10:18:15;522.35;;;469.67;;
10351;SDS011;5222;49.324;8.420;2022-09-21T10:20:55;534.88;;;484.15;;
10351;SDS011;5222;49.324;8.420;2022-09-21T10:23:25;485.27;;;436.97;;
10351;SDS011;5222;49.324;8.420;2022-09-21T10:25:57;510.08;;;460.55;;
10351;SDS011;5222;49.324;8.420;2022-09-21T10:28:27;497.27;;;448.35;;
10351;SDS011;5222;49.324;8.420;2022-09-21T10:31:15;500.10;;;450.85;;
10351;SDS011;5222;49.324;8.420;2022-09-21T10:33:46;494.93;;;445.17;;
10351;SDS011;5222;49.324;8.420;2022-09-21T10:36:23;534.08;;;482.25;;
10351;SDS011;5222;49.324;8.420;2022-09-21T10:38:52;542.28;;;490.50;;
10351;SDS011;5222;49.324;8.420;2022-09-21T10:41:19;536.75;;;485.55;;
10351;SDS011;5222;49.324;8.420;2022-09-21T10:43:46;509.92;;;459.15;;
10351;SDS011;5222;49.324;8.420;2022-09-21T10:46:16;513.13;;;463.38;;
10351;SDS011;5222;49.324;8.420;2022-09-21T10:48:56;516.67;;;466.95;;
10351;SDS011;5222;49.324;8.420;2022-09-21T10:51:25;529.40;;;478.85;;
10351;SDS011;5222;49.324;8.420;2022-09-21T10:53:54;509.37;;;459.83;;
10351;SDS011;5222;49.324;8.420;2022-09-21T10:56:21;508.83;;;459.70;;
10351;SDS011;5222;49.324;8.420;2022-09-21T11:01:48;497.45;;;449.20;;
10351;SDS011;5222;49.324;8.420;2022-09-21T11:04:18;482.98;;;434.65;;
10351;SDS011;5222;49.324;8.420;2022-09-21T11:07:02;525.95;;;476.30;;
10351;SDS011;5222;49.324;8.420;2022-09-21T11:09:35;517.25;;;467.40;;
10351;SDS011;5222;49.324;8.420;2022-09-21T11:12:06;515.08;;;465.80;;
10351;SDS011;5222;49.324;8.420;2022-09-21T11:14:43;521.78;;;472.88;;
10351;SDS011;5222;49.324;8.420;2022-09-21T11:17:18;515.67;;;466.60;;
10351;SDS011;5222;49.324;8.420;2022-09-21T11:19:53;510.58;;;460.80;;
10351;SDS011;5222;49.324;8.420;2022-09-21T11:22:26;524.75;;;475.13;;
10351;SDS011;5222;49.324;8.420;2022-09-21T11:25:04;513.60;;;465.15;;
10351;SDS011;5222;49.324;8.420;2022-09-21T11:27:51;547.33;;;497.55;;
10351;SDS011;5222;49.324;8.420;2022-09-21T11:30:21;570.50;;;518.80;;
10351;SDS011;5222;49.324;8.420;2022-09-21T11:32:57;534.60;;;484.98;;
10351;SDS011;5222;49.324;8.420;2022-09-21T11:35:38;570.35;;;516.78;;
10351;SDS011;5222;49.324;8.420;2022-09-21T11:38:17;560.83;;;509.90;;
10351;SDS011;5222;49.324;8.420;2022-09-21T11:41:00;540.22;;;489.70;;
10351;SDS011;5222;49.324;8.420;2022-09-21T11:43:40;580.57;;;529.17;;
10351;SDS011;5222;49.324;8.420;2022-09-21T11:46:21;564.22;;;512.88;;
10351;SDS011;5222;49.324;8.420;2022-09-21T11:48:57;594.65;;;542.65;;
10351;SDS011;5222;49.324;8.420;2022-09-21T11:52:00;612.40;;;560.10;;
10351;SDS011;5222;49.324;8.420;2022-09-21T11:54:42;584.50;;;533.45;;
10351;SDS011;5222;49.324;8.420;2022-09-21T11:57:39;562.13;;;511.30;;
10351;SDS011;5222;49.324;8.420;2022-09-21T12:00:12;566.13;;;515.58;;
10351;SDS011;5222;49.324;8.420;2022-09-21T12:02:46;573.45;;;523.33;;
10351;SDS011;5222;49.324;8.420;2022-09-21T12:05:33;577.30;;;526.25;;
10351;SDS011;5222;49.324;8.420;2022-09-21T12:08:09;580.78;;;530.03;;
10351;SDS011;5222;49.324;8.420;2022-09-21T12:10:52;568.97;;;518.83;;
10351;SDS011;5222;49.324;8.420;2022-09-21T12:13:28;550.95;;;501.42;;
10351;SDS011;5222;49.324;8.420;2022-09-21T12:16:03;555.22;;;505.10;;
10351;SDS011;5222;49.324;8.420;2022-09-21T12:18:37;556.47;;;506.48;;
10351;SDS011;5222;49.324;8.420;2022-09-21T12:21:14;541.13;;;491.33;;
10351;SDS011;5222;49.324;8.420;2022-09-21T12:23:47;528.95;;;479.80;;
10351;SDS011;5222;49.324;8.420;2022-09-21T12:26:18;541.35;;;491.70;;
10351;SDS011;5222;49.324;8.420;2022-09-21T12:28:49;558.25;;;507.85;;
10351;SDS011;5222;49.324;8.420;2022-09-21T12:31:19;559.55;;;509.38;;
10351;SDS011;5222;49.324;8.420;2022-09-21T12:33:50;536.10;;;486.52;;
10351;SDS011;5222;49.324;8.420;2022-09-21T12:36:22;526.80;;;477.50;;
10351;SDS011;5222;49.324;8.420;2022-09-21T12:38:54;541.95;;;492.10;;
10351;SDS011;5222;49.324;8.420;2022-09-21T12:41:29;536.40;;;487.35;;
10351;SDS011;5222;49.324;8.420;2022-09-21T12:44:02;557.72;;;507.48;;
10351;SDS011;5222;49.324;8.420;2022-09-21T12:46:36;562.25;;;511.92;;
10351;SDS011;5222;49.324;8.420;2022-09-21T12:49:07;543.55;;;493.75;;
10351;SDS011;5222;49.324;8.420;2022-09-21T12:51:40;504.73;;;456.05;;
10351;SDS011;5222;49.324;8.420;2022-09-21T12:54:16;505.98;;;457.52;;
10351;SDS011;5222;49.324;8.420;2022-09-21T12:56:50;526.70;;;477.73;;
10351;SDS011;5222;49.324;8.420;2022-09-21T12:59:24;510.50;;;461.85;;
10351;SDS011;5222;49.324;8.420;2022-09-21T13:01:57;495.25;;;447.13;;
10351;SDS011;5222;49.324;8.420;2022-09-21T13:04:38;495.27;;;447.23;;
10351;SDS011;5222;49.324;8.420;2022-09-21T13:07:34;523.33;;;474.50;;
10351;SDS011;5222;49.324;8.420;2022-09-21T13:10:14;524.50;;;475.20;;
10351;SDS011;5222;49.324;8.420;2022-09-21T13:12:46;540.30;;;489.75;;
10351;SDS011;5222;49.324;8.420;2022-09-21T13:15:20;520.20;;;470.50;;
10351;SDS011;5222;49.324;8.420;2022-09-21T13:17:55;546.08;;;495.65;;
10351;SDS011;5222;49.324;8.420;2022-09-21T13:20:24;548.63;;;497.70;;
10351;SDS011;5222;49.324;8.420;2022-09-21T13:22:58;533.95;;;483.92;;
10351;SDS011;5222;49.324;8.420;2022-09-21T13:25:26;543.35;;;492.38;;
10351;SDS011;5222;49.324;8.420;2022-09-21T13:27:58;537.60;;;487.70;;
10351;SDS011;5222;49.324;8.420;2022-09-21T13:30:37;550.58;;;499.40;;
10351;SDS011;5222;49.324;8.420;2022-09-21T13:36:00;554.40;;;502.98;;
10351;SDS011;5222;49.324;8.420;2022-09-21T13:38:31;529.45;;;478.45;;
10351;SDS011;5222;49.324;8.420;2022-09-21T13:41:02;516.25;;;467.08;;
10351;SDS011;5222;49.324;8.420;2022-09-21T13:46:44;519.30;;;470.67;;
10351;SDS011;5222;49.324;8.420;2022-09-21T13:49:25;532.47;;;482.63;;
10351;SDS011;5222;49.324;8.420;2022-09-21T13:51:58;521.15;;;471.92;;
10351;SDS011;5222;49.324;8.420;2022-09-21T13:54:29;520.58;;;470.98;;
10351;SDS011;5222;49.324;8.420;2022-09-21T13:57:03;541.67;;;492.05;;
10351;SDS011;5222;49.324;8.420;2022-09-21T13:59:40;535.58;;;485.73;;
10351;SDS011;5222;49.324;8.420;2022-09-21T14:02:18;520.40;;;471.42;;
10351;SDS011;5222;49.324;8.420;2022-09-21T14:04:56;523.35;;;473.83;;
10351;SDS011;5222;49.324;8.420;2022-09-21T14:07:28;554.95;;;503.67;;
10351;SDS011;5222;49.324;8.420;2022-09-21T14:09:58;535.75;;;484.75;;
10351;SDS011;5222;49.324;8.420;2022-09-21T14:12:30;532.70;;;482.80;;
10351;SDS011;5222;49.324;8.420;2022-09-21T14:15:22;552.25;;;501.85;;
10351;SDS011;5222;49.324;8.420;2022-09-21T14:18:20;550.17;;;499.27;;
10351;SDS011;5222;49.324;8.420;2022-09-21T14:21:06;556.97;;;506.40;;
10351;SDS011;5222;49.324;8.420;2022-09-21T14:23:34;541.15;;;490.80;;
10351;SDS011;5222;49.324;8.420;2022-09-21T14:28:57;538.92;;;488.38;;
10351;SDS011;5222;49.324;8.420;2022-09-21T14:31:25;544.78;;;494.23;;
10351;SDS011;5222;49.324;8.420;2022-09-21T14:33:56;532.55;;;482.52;;
10351;SDS011;5222;49.324;8.420;2022-09-21T14:36:30;544.33;;;493.70;;
10351;SDS011;5222;49.324;8.420;2022-09-21T14:39:03;529.63;;;480.25;;
10351;SDS011;5222;49.324;8.420;2022-09-21T14:41:36;537.00;;;487.15;;
10351;SDS011;5222;49.324;8.420;2022-09-21T14:44:04;529.08;;;479.27;;
10351;SDS011;5222;49.324;8.420;2022-09-21T14:46:39;509.75;;;461.25;;
10351;SDS011;5222;49.324;8.420;2022-09-21T14:49:35;553.80;;;502.98;;